sensor_id;sensor_type;location;lat;lon;timestamp;P1;durP1;ratioP1;P2;durP2;ratioP2
69057;SDS011;56128;37.534;-122.308;2023-06-22T00:02:18;11.73;;;3.00;;
69057;SDS011;56128;37.534;-122.308;2023-06-22T00:04:44;8.52;;;2.70;;
69057;SDS011;56128;37.534;-122.308;2023-06-22T00:07:11;8.77;;;2.88;;
69057;SDS011;56128;37.534;-122.308;2023-06-22T00:09:37;10.75;;;2.92;;
69057;SDS011;56128;37.534;-122.308;2023-06-22T00:12:03;7.78;;;2.40;;
69057;SDS011;56128;37.534;-122.308;2023-06-22T00:14:31;9.27;;;2.42;;
69057;SDS011;56128;37.534;-122.308;2023-06-22T00:16:57;11.32;;;3.20;;
69057;SDS011;56128;37.534;-122.308;2023-06-22T00:19:24;7.40;;;2.55;;
69057;SDS011;56128;37.534;-122.308;2023-06-22T00:21:50;9.77;;;2.67;;
69057;SDS011;56128;37.534;-122.308;2023-06-22T00:24:23;8.77;;;2.80;;
69057;SDS011;56128;37.534;-122.308;2023-06-22T00:26:50;9.75;;;2.67;;
69057;SDS011;56128;37.534;-122.308;2023-06-22T00:29:17;11.23;;;3.42;;
69057;SDS011;56128;37.534;-122.308;2023-06-22T00:31:46;9.20;;;2.65;;
69057;SDS011;56128;37.534;-122.308;2023-06-22T00:34:12;9.20;;;2.45;;
69057;SDS011;56128;37.534;-122.308;2023-06-22T00:36:39;7.05;;;2.10;;
69057;SDS011;56128;37.534;-122.308;2023-06-22T00:39:06;7.65;;;2.83;;
69057;SDS011;56128;37.534;-122.308;2023-06-22T00:41:33;7.53;;;2.55;;
69057;SDS011;56128;37.534;-122.308;2023-06-22T00:43:59;13.82;;;2.55;;
69057;SDS011;56128;37.534;-122.308;2023-06-22T00:46:25;8.70;;;2.58;;
69057;SDS011;56128;37.534;-122.308;2023-06-22T00:48:51;9.98;;;2.65;;
69057;SDS011;56128;37.534;-122.308;2023-06-22T00:51:22;7.85;;;2.42;;
69057;SDS011;56128;37.534;-122.308;2023-06-22T00:53:50;10.73;;;3.00;;
69057;SDS011;56128;37.534;-122.308;2023-06-22T00:56:17;11.30;;;2.47;;
69057;SDS011;56128;37.534;-122.308;2023-06-22T00:58:45;10.02;;;2.58;;
69057;SDS011;56128;37.534;-122.308;2023-06-22T01:01:13;12.02;;;2.90;;
69057;SDS011;56128;37.534;-122.308;2023-06-22T01:03:40;10.30;;;2.47;;
69057;SDS011;56128;37.534;-122.308;2023-06-22T01:06:07;8.85;;;2.55;;
69057;SDS011;56128;37.534;-122.308;2023-06-22T01:08:44;9.68;;;2.85;;
69057;SDS011;56128;37.534;-122.308;2023-06-22T01:16:18;8.52;;;3.08;;
69057;SDS011;56128;37.534;-122.308;2023-06-22T01:18:53;12.57;;;3.00;;
69057;SDS011;56128;37.534;-122.308;2023-06-22T01:21:23;7.20;;;2.58;;
69057;SDS011;56128;37.534;-122.308;2023-06-22T01:23:57;7.90;;;2.80;;
69057;SDS011;56128;37.534;-122.308;2023-06-22T01:26:43;9.27;;;2.60;;
69057;SDS011;56128;37.534;-122.308;2023-06-22T01:29:36;5.88;;;2.55;;
69057;SDS011;56128;37.534;-122.308;2023-06-22T01:32:04;11.52;;;3.10;;
69057;SDS011;56128;37.534;-122.308;2023-06-22T01:34:32;7.47;;;2.85;;
69057;SDS011;56128;37.534;-122.308;2023-06-22T01:37:00;8.68;;;2.90;;
69057;SDS011;56128;37.534;-122.308;2023-06-22T01:39:28;11.90;;;3.25;;
69057;SDS011;56128;37.534;-122.308;2023-06-22T01:41:55;7.20;;;2.95;;
69057;SDS011;56128;37.534;-122.308;2023-06-22T01:44:24;10.43;;;3.25;;
69057;SDS011;56128;37.534;-122.308;2023-06-22T01:46:52;15.18;;;3.50;;
69057;SDS011;56128;37.534;-122.308;2023-06-22T01:49:20;10.00;;;3.33;;
69057;SDS011;56128;37.534;-122.308;2023-06-22T01:51:47;11.93;;;3.42;;
69057;SDS011;56128;37.534;-122.308;2023-06-22T01:54:14;7.82;;;3.10;;
69057;SDS011;56128;37.534;-122.308;2023-06-22T01:56:41;8.68;;;3.25;;
69057;SDS011;56128;37.534;-122.308;2023-06-22T02:02:02;8.90;;;3.35;;
69057;SDS011;56128;37.534;-122.308;2023-06-22T02:07:31;11.05;;;3.38;;
69057;SDS011;56128;37.534;-122.308;2023-06-22T02:09:59;14.88;;;2.90;;
69057;SDS011;56128;37.534;-122.308;2023-06-22T02:12:27;11.40;;;3.30;;
69057;SDS011;56128;37.534;-122.308;2023-06-22T02:14:54;11.68;;;3.40;;
69057;SDS011;56128;37.534;-122.308;2023-06-22T02:17:23;11.05;;;3.50;;
69057;SDS011;56128;37.534;-122.308;2023-06-22T02:19:51;7.82;;;3.38;;
69057;SDS011;56128;37.534;-122.308;2023-06-22T02:22:17;7.22;;;2.85;;
69057;SDS011;56128;37.534;-122.308;2023-06-22T02:24:44;11.65;;;3.38;;
69057;SDS011;56128;37.534;-122.308;2023-06-22T02:27:11;9.07;;;2.80;;
69057;SDS011;56128;37.534;-122.308;2023-06-22T02:29:39;9.93;;;2.90;;
69057;SDS011;56128;37.534;-122.308;2023-06-22T02:32:05;10.77;;;2.90;;
69057;SDS011;56128;37.534;-122.308;2023-06-22T02:34:31;8.60;;;3.38;;
69057;SDS011;56128;37.534;-122.308;2023-06-22T02:37:03;8.98;;;3.63;;
69057;SDS011;56128;37.534;-122.308;2023-06-22T02:39:31;8.40;;;3.47;;
69057;SDS011;56128;37.534;-122.308;2023-06-22T02:41:59;11.05;;;3.50;;
69057;SDS011;56128;37.534;-122.308;2023-06-22T02:44:27;9.60;;;3.35;;
69057;SDS011;56128;37.534;-122.308;2023-06-22T02:46:53;13.75;;;3.65;;
69057;SDS011;56128;37.534;-122.308;2023-06-22T02:49:20;10.38;;;3.58;;
69057;SDS011;56128;37.534;-122.308;2023-06-22T02:51:47;10.52;;;3.47;;
69057;SDS011;56128;37.534;-122.308;2023-06-22T02:54:13;9.75;;;3.30;;
69057;SDS011;56128;37.534;-122.308;2023-06-22T02:56:40;11.60;;;3.60;;
69057;SDS011;56128;37.534;-122.308;2023-06-22T02:59:09;10.95;;;3.47;;
69057;SDS011;56128;37.534;-122.308;2023-06-22T03:01:36;12.32;;;3.53;;
69057;SDS011;56128;37.534;-122.308;2023-06-22T03:04:06;12.50;;;3.53;;
69057;SDS011;56128;37.534;-122.308;2023-06-22T03:06:32;9.25;;;3.13;;
69057;SDS011;56128;37.534;-122.308;2023-06-22T03:09:00;8.82;;;3.50;;
69057;SDS011;56128;37.534;-122.308;2023-06-22T03:11:29;13.45;;;4.45;;
69057;SDS011;56128;37.534;-122.308;2023-06-22T03:14:00;14.40;;;4.10;;
69057;SDS011;56128;37.534;-122.308;2023-06-22T03:16:28;12.00;;;4.03;;
69057;SDS011;56128;37.534;-122.308;2023-06-22T03:18:55;12.25;;;3.47;;
69057;SDS011;56128;37.534;-122.308;2023-06-22T03:21:24;16.38;;;4.22;;
69057;SDS011;56128;37.534;-122.308;2023-06-22T03:23:52;12.48;;;3.55;;
69057;SDS011;56128;37.534;-122.308;2023-06-22T03:26:19;14.88;;;3.78;;
69057;SDS011;56128;37.534;-122.308;2023-06-22T03:28:46;12.32;;;4.10;;
69057;SDS011;56128;37.534;-122.308;2023-06-22T03:31:12;16.48;;;3.90;;
69057;SDS011;56128;37.534;-122.308;2023-06-22T03:33:39;13.07;;;3.67;;
69057;SDS011;56128;37.534;-122.308;2023-06-22T03:36:05;15.40;;;3.83;;
69057;SDS011;56128;37.534;-122.308;2023-06-22T03:38:31;12.15;;;4.10;;
69057;SDS011;56128;37.534;-122.308;2023-06-22T03:40:59;10.88;;;4.00;;
69057;SDS011;56128;37.534;-122.308;2023-06-22T03:43:26;13.27;;;4.22;;
69057;SDS011;56128;37.534;-122.308;2023-06-22T03:45:52;10.25;;;3.90;;
69057;SDS011;56128;37.534;-122.308;2023-06-22T03:48:18;10.13;;;4.07;;
69057;SDS011;56128;37.534;-122.308;2023-06-22T03:50:44;15.82;;;4.10;;
69057;SDS011;56128;37.534;-122.308;2023-06-22T03:53:11;10.35;;;3.50;;
69057;SDS011;56128;37.534;-122.308;2023-06-22T03:55:40;19.23;;;4.40;;
69057;SDS011;56128;37.534;-122.308;2023-06-22T03:58:14;13.27;;;4.20;;
69057;SDS011;56128;37.534;-122.308;2023-06-22T04:00:40;13.30;;;4.10;;
69057;SDS011;56128;37.534;-122.308;2023-06-22T04:03:06;13.05;;;4.68;;
69057;SDS011;56128;37.534;-122.308;2023-06-22T04:05:33;12.45;;;4.57;;
69057;SDS011;56128;37.534;-122.308;2023-06-22T04:07:59;14.95;;;5.18;;
69057;SDS011;56128;37.534;-122.308;2023-06-22T04:10:25;15.68;;;4.80;;
69057;SDS011;56128;37.534;-122.308;2023-06-22T04:12:51;12.80;;;4.35;;
69057;SDS011;56128;37.534;-122.308;2023-06-22T04:15:17;14.60;;;4.13;;
69057;SDS011;56128;37.534;-122.308;2023-06-22T04:17:43;17.45;;;4.90;;
69057;SDS011;56128;37.534;-122.308;2023-06-22T04:20:10;15.85;;;4.80;;
69057;SDS011;56128;37.534;-122.308;2023-06-22T04:22:36;12.30;;;4.22;;
69057;SDS011;56128;37.534;-122.308;2023-06-22T04:25:02;17.45;;;4.40;;
69057;SDS011;56128;37.534;-122.308;2023-06-22T04:27:28;14.85;;;4.90;;
69057;SDS011;56128;37.534;-122.308;2023-06-22T04:29:55;13.10;;;5.25;;
69057;SDS011;56128;37.534;-122.308;2023-06-22T04:32:21;14.80;;;4.28;;
69057;SDS011;56128;37.534;-122.308;2023-06-22T04:34:47;14.75;;;4.80;;
69057;SDS011;56128;37.534;-122.308;2023-06-22T04:37:13;13.40;;;4.90;;
69057;SDS011;56128;37.534;-122.308;2023-06-22T04:39:41;11.48;;;4.78;;
69057;SDS011;56128;37.534;-122.308;2023-06-22T04:42:08;10.95;;;4.45;;
69057;SDS011;56128;37.534;-122.308;2023-06-22T04:44:34;10.68;;;4.82;;
69057;SDS011;56128;37.534;-122.308;2023-06-22T04:47:01;15.77;;;4.85;;
69057;SDS011;56128;37.534;-122.308;2023-06-22T04:49:29;16.42;;;4.80;;
69057;SDS011;56128;37.534;-122.308;2023-06-22T04:52:02;20.60;;;4.72;;
69057;SDS011;56128;37.534;-122.308;2023-06-22T04:54:30;15.93;;;4.53;;
69057;SDS011;56128;37.534;-122.308;2023-06-22T04:57:03;12.70;;;4.90;;
69057;SDS011;56128;37.534;-122.308;2023-06-22T04:59:36;13.65;;;4.75;;
69057;SDS011;56128;37.534;-122.308;2023-06-22T05:02:04;16.75;;;5.25;;
69057;SDS011;56128;37.534;-122.308;2023-06-22T05:04:31;15.50;;;5.22;;
69057;SDS011;56128;37.534;-122.308;2023-06-22T05:07:01;12.63;;;4.50;;
69057;SDS011;56128;37.534;-122.308;2023-06-22T05:09:28;14.05;;;4.72;;
69057;SDS011;56128;37.534;-122.308;2023-06-22T05:11:55;16.50;;;5.60;;
69057;SDS011;56128;37.534;-122.308;2023-06-22T05:14:25;9.27;;;4.85;;
69057;SDS011;56128;37.534;-122.308;2023-06-22T05:16:51;12.77;;;4.93;;
69057;SDS011;56128;37.534;-122.308;2023-06-22T05:19:17;17.20;;;5.05;;
69057;SDS011;56128;37.534;-122.308;2023-06-22T05:21:43;17.70;;;5.13;;
69057;SDS011;56128;37.534;-122.308;2023-06-22T05:24:09;15.55;;;5.60;;
69057;SDS011;56128;37.534;-122.308;2023-06-22T05:26:36;16.95;;;5.20;;
69057;SDS011;56128;37.534;-122.308;2023-06-22T05:29:02;15.95;;;4.78;;
69057;SDS011;56128;37.534;-122.308;2023-06-22T05:31:29;16.58;;;5.60;;
69057;SDS011;56128;37.534;-122.308;2023-06-22T05:33:55;12.23;;;5.18;;
69057;SDS011;56128;37.534;-122.308;2023-06-22T05:36:22;18.83;;;5.68;;
69057;SDS011;56128;37.534;-122.308;2023-06-22T05:38:51;16.70;;;4.93;;
69057;SDS011;56128;37.534;-122.308;2023-06-22T05:41:18;13.43;;;4.97;;
69057;SDS011;56128;37.534;-122.308;2023-06-22T05:43:44;15.75;;;5.25;;
69057;SDS011;56128;37.534;-122.308;2023-06-22T05:46:10;12.65;;;5.30;;
69057;SDS011;56128;37.534;-122.308;2023-06-22T05:48:37;15.82;;;5.63;;
69057;SDS011;56128;37.534;-122.308;2023-06-22T05:51:03;11.50;;;4.85;;
69057;SDS011;56128;37.534;-122.308;2023-06-22T05:53:29;21.65;;;5.40;;
69057;SDS011;56128;37.534;-122.308;2023-06-22T05:55:55;12.27;;;5.20;;
69057;SDS011;56128;37.534;-122.308;2023-06-22T05:58:22;16.75;;;5.22;;
69057;SDS011;56128;37.534;-122.308;2023-06-22T06:00:48;14.52;;;5.07;;
69057;SDS011;56128;37.534;-122.308;2023-06-22T06:03:14;14.07;;;5.50;;
69057;SDS011;56128;37.534;-122.308;2023-06-22T06:05:42;19.77;;;5.53;;
69057;SDS011;56128;37.534;-122.308;2023-06-22T06:08:09;14.98;;;5.90;;
69057;SDS011;56128;37.534;-122.308;2023-06-22T06:10:36;10.82;;;4.93;;
69057;SDS011;56128;37.534;-122.308;2023-06-22T06:13:02;15.65;;;5.80;;
69057;SDS011;56128;37.534;-122.308;2023-06-22T06:15:30;20.35;;;5.68;;
69057;SDS011;56128;37.534;-122.308;2023-06-22T06:17:57;18.42;;;5.75;;
69057;SDS011;56128;37.534;-122.308;2023-06-22T06:20:24;17.33;;;5.35;;
69057;SDS011;56128;37.534;-122.308;2023-06-22T06:22:51;17.02;;;6.07;;
69057;SDS011;56128;37.534;-122.308;2023-06-22T06:25:17;17.00;;;5.53;;
69057;SDS011;56128;37.534;-122.308;2023-06-22T06:27:46;13.10;;;5.68;;
69057;SDS011;56128;37.534;-122.308;2023-06-22T06:30:14;15.52;;;6.05;;
69057;SDS011;56128;37.534;-122.308;2023-06-22T06:32:41;13.52;;;5.47;;
69057;SDS011;56128;37.534;-122.308;2023-06-22T06:35:08;14.65;;;5.32;;
69057;SDS011;56128;37.534;-122.308;2023-06-22T06:37:36;17.90;;;5.63;;
69057;SDS011;56128;37.534;-122.308;2023-06-22T06:40:08;16.55;;;5.95;;
69057;SDS011;56128;37.534;-122.308;2023-06-22T06:42:38;14.10;;;5.90;;
69057;SDS011;56128;37.534;-122.308;2023-06-22T06:45:10;16.08;;;5.70;;
69057;SDS011;56128;37.534;-122.308;2023-06-22T06:47:38;17.23;;;6.65;;
69057;SDS011;56128;37.534;-122.308;2023-06-22T06:50:05;14.90;;;5.97;;
69057;SDS011;56128;37.534;-122.308;2023-06-22T06:52:31;20.13;;;6.68;;
69057;SDS011;56128;37.534;-122.308;2023-06-22T06:54:58;15.82;;;6.00;;
69057;SDS011;56128;37.534;-122.308;2023-06-22T06:57:25;15.05;;;6.43;;
69057;SDS011;56128;37.534;-122.308;2023-06-22T06:59:58;18.65;;;5.95;;
69057;SDS011;56128;37.534;-122.308;2023-06-22T07:02:25;19.33;;;6.25;;
69057;SDS011;56128;37.534;-122.308;2023-06-22T07:04:56;21.13;;;6.15;;
69057;SDS011;56128;37.534;-122.308;2023-06-22T07:07:22;18.05;;;5.63;;
69057;SDS011;56128;37.534;-122.308;2023-06-22T07:09:48;13.55;;;5.65;;
69057;SDS011;56128;37.534;-122.308;2023-06-22T07:12:14;21.65;;;5.85;;
69057;SDS011;56128;37.534;-122.308;2023-06-22T07:14:40;22.30;;;6.05;;
69057;SDS011;56128;37.534;-122.308;2023-06-22T07:17:07;18.83;;;6.30;;
69057;SDS011;56128;37.534;-122.308;2023-06-22T07:19:33;23.08;;;6.93;;
69057;SDS011;56128;37.534;-122.308;2023-06-22T07:21:59;21.25;;;6.30;;
69057;SDS011;56128;37.534;-122.308;2023-06-22T07:24:25;17.10;;;6.32;;
69057;SDS011;56128;37.534;-122.308;2023-06-22T07:26:52;21.10;;;7.07;;
69057;SDS011;56128;37.534;-122.308;2023-06-22T07:29:19;17.55;;;6.88;;
69057;SDS011;56128;37.534;-122.308;2023-06-22T07:31:46;16.40;;;7.00;;
69057;SDS011;56128;37.534;-122.308;2023-06-22T07:34:16;22.33;;;6.88;;
69057;SDS011;56128;37.534;-122.308;2023-06-22T07:36:43;15.77;;;6.20;;
69057;SDS011;56128;37.534;-122.308;2023-06-22T07:39:09;19.83;;;6.57;;
69057;SDS011;56128;37.534;-122.308;2023-06-22T07:41:38;22.95;;;6.63;;
69057;SDS011;56128;37.534;-122.308;2023-06-22T07:44:08;21.60;;;5.85;;
69057;SDS011;56128;37.534;-122.308;2023-06-22T07:46:34;19.25;;;5.85;;
69057;SDS011;56128;37.534;-122.308;2023-06-22T07:49:00;17.58;;;6.32;;
69057;SDS011;56128;37.534;-122.308;2023-06-22T07:51:27;21.27;;;6.25;;
69057;SDS011;56128;37.534;-122.308;2023-06-22T07:53:53;19.92;;;6.63;;
69057;SDS011;56128;37.534;-122.308;2023-06-22T07:56:20;14.45;;;6.43;;
69057;SDS011;56128;37.534;-122.308;2023-06-22T07:58:46;15.25;;;6.13;;
69057;SDS011;56128;37.534;-122.308;2023-06-22T08:01:16;21.55;;;6.65;;
69057;SDS011;56128;37.534;-122.308;2023-06-22T08:03:44;18.30;;;6.00;;
69057;SDS011;56128;37.534;-122.308;2023-06-22T08:06:10;25.88;;;6.60;;
69057;SDS011;56128;37.534;-122.308;2023-06-22T08:08:37;17.02;;;6.72;;
69057;SDS011;56128;37.534;-122.308;2023-06-22T08:11:03;19.88;;;6.68;;
69057;SDS011;56128;37.534;-122.308;2023-06-22T08:13:29;20.73;;;6.45;;
69057;SDS011;56128;37.534;-122.308;2023-06-22T08:15:56;19.15;;;6.32;;
69057;SDS011;56128;37.534;-122.308;2023-06-22T08:18:22;20.52;;;6.95;;
69057;SDS011;56128;37.534;-122.308;2023-06-22T08:20:48;20.80;;;6.45;;
69057;SDS011;56128;37.534;-122.308;2023-06-22T08:23:15;17.95;;;6.35;;
69057;SDS011;56128;37.534;-122.308;2023-06-22T08:25:41;19.27;;;6.45;;
69057;SDS011;56128;37.534;-122.308;2023-06-22T08:28:07;19.73;;;6.40;;
69057;SDS011;56128;37.534;-122.308;2023-06-22T08:30:34;19.40;;;6.43;;
69057;SDS011;56128;37.534;-122.308;2023-06-22T08:33:00;20.38;;;7.30;;
69057;SDS011;56128;37.534;-122.308;2023-06-22T08:35:26;13.23;;;6.50;;
69057;SDS011;56128;37.534;-122.308;2023-06-22T08:37:52;25.83;;;6.22;;
69057;SDS011;56128;37.534;-122.308;2023-06-22T08:40:19;15.27;;;5.95;;
69057;SDS011;56128;37.534;-122.308;2023-06-22T08:42:46;15.75;;;6.22;;
69057;SDS011;56128;37.534;-122.308;2023-06-22T08:45:13;13.95;;;6.90;;
69057;SDS011;56128;37.534;-122.308;2023-06-22T08:47:40;22.00;;;6.25;;
69057;SDS011;56128;37.534;-122.308;2023-06-22T08:50:07;21.25;;;6.97;;
69057;SDS011;56128;37.534;-122.308;2023-06-22T08:52:34;22.38;;;7.10;;
69057;SDS011;56128;37.534;-122.308;2023-06-22T08:55:01;22.30;;;6.63;;
69057;SDS011;56128;37.534;-122.308;2023-06-22T08:57:28;19.85;;;7.50;;
69057;SDS011;56128;37.534;-122.308;2023-06-22T08:59:55;18.20;;;6.40;;
69057;SDS011;56128;37.534;-122.308;2023-06-22T09:02:25;20.95;;;6.97;;
69057;SDS011;56128;37.534;-122.308;2023-06-22T09:04:51;17.05;;;6.45;;
69057;SDS011;56128;37.534;-122.308;2023-06-22T09:07:21;18.25;;;6.75;;
69057;SDS011;56128;37.534;-122.308;2023-06-22T09:09:49;19.35;;;6.70;;
69057;SDS011;56128;37.534;-122.308;2023-06-22T09:12:16;21.10;;;6.45;;
69057;SDS011;56128;37.534;-122.308;2023-06-22T09:14:42;16.40;;;6.30;;
69057;SDS011;56128;37.534;-122.308;2023-06-22T09:17:08;19.52;;;6.65;;
69057;SDS011;56128;37.534;-122.308;2023-06-22T09:19:35;19.00;;;7.10;;
69057;SDS011;56128;37.534;-122.308;2023-06-22T09:22:01;24.13;;;6.65;;
69057;SDS011;56128;37.534;-122.308;2023-06-22T09:24:28;18.63;;;6.25;;
69057;SDS011;56128;37.534;-122.308;2023-06-22T09:26:54;14.75;;;6.85;;
69057;SDS011;56128;37.534;-122.308;2023-06-22T09:29:21;17.90;;;6.78;;
69057;SDS011;56128;37.534;-122.308;2023-06-22T09:31:47;24.45;;;7.00;;
69057;SDS011;56128;37.534;-122.308;2023-06-22T09:34:13;18.15;;;6.90;;
69057;SDS011;56128;37.534;-122.308;2023-06-22T09:36:40;22.20;;;6.53;;
69057;SDS011;56128;37.534;-122.308;2023-06-22T09:39:07;22.10;;;6.80;;
69057;SDS011;56128;37.534;-122.308;2023-06-22T09:41:33;21.05;;;7.32;;
69057;SDS011;56128;37.534;-122.308;2023-06-22T09:43:59;19.50;;;7.03;;
69057;SDS011;56128;37.534;-122.308;2023-06-22T09:46:25;17.40;;;7.35;;
69057;SDS011;56128;37.534;-122.308;2023-06-22T09:48:51;21.17;;;7.13;;
69057;SDS011;56128;37.534;-122.308;2023-06-22T09:51:18;27.92;;;7.25;;
69057;SDS011;56128;37.534;-122.308;2023-06-22T09:53:46;23.00;;;6.65;;
69057;SDS011;56128;37.534;-122.308;2023-06-22T09:56:13;16.33;;;6.60;;
69057;SDS011;56128;37.534;-122.308;2023-06-22T09:58:44;25.52;;;7.63;;
69057;SDS011;56128;37.534;-122.308;2023-06-22T10:01:17;22.50;;;6.57;;
69057;SDS011;56128;37.534;-122.308;2023-06-22T10:03:46;13.50;;;5.55;;
69057;SDS011;56128;37.534;-122.308;2023-06-22T10:06:12;15.15;;;6.47;;
69057;SDS011;56128;37.534;-122.308;2023-06-22T10:08:38;14.95;;;5.75;;
69057;SDS011;56128;37.534;-122.308;2023-06-22T10:11:05;18.08;;;6.30;;
69057;SDS011;56128;37.534;-122.308;2023-06-22T10:13:32;17.98;;;5.60;;
69057;SDS011;56128;37.534;-122.308;2023-06-22T10:15:58;15.23;;;5.97;;
69057;SDS011;56128;37.534;-122.308;2023-06-22T10:18:24;12.43;;;5.95;;
69057;SDS011;56128;37.534;-122.308;2023-06-22T10:20:52;15.60;;;6.00;;
69057;SDS011;56128;37.534;-122.308;2023-06-22T10:23:19;17.30;;;5.38;;
69057;SDS011;56128;37.534;-122.308;2023-06-22T10:25:45;16.92;;;5.85;;
69057;SDS011;56128;37.534;-122.308;2023-06-22T10:28:12;16.25;;;5.63;;
69057;SDS011;56128;37.534;-122.308;2023-06-22T10:30:39;16.90;;;5.25;;
69057;SDS011;56128;37.534;-122.308;2023-06-22T10:33:08;15.60;;;5.40;;
69057;SDS011;56128;37.534;-122.308;2023-06-22T10:35:35;18.35;;;5.90;;
69057;SDS011;56128;37.534;-122.308;2023-06-22T10:38:03;19.38;;;5.35;;
69057;SDS011;56128;37.534;-122.308;2023-06-22T10:40:30;11.00;;;4.72;;
69057;SDS011;56128;37.534;-122.308;2023-06-22T10:42:56;12.82;;;5.07;;
69057;SDS011;56128;37.534;-122.308;2023-06-22T10:45:22;11.77;;;4.45;;
69057;SDS011;56128;37.534;-122.308;2023-06-22T10:47:48;12.50;;;4.95;;
69057;SDS011;56128;37.534;-122.308;2023-06-22T10:50:14;14.73;;;4.97;;
69057;SDS011;56128;37.534;-122.308;2023-06-22T10:52:41;13.48;;;4.80;;
69057;SDS011;56128;37.534;-122.308;2023-06-22T10:55:08;16.00;;;4.80;;
69057;SDS011;56128;37.534;-122.308;2023-06-22T10:57:34;12.07;;;4.80;;
69057;SDS011;56128;37.534;-122.308;2023-06-22T11:00:02;14.45;;;4.68;;
69057;SDS011;56128;37.534;-122.308;2023-06-22T11:02:31;18.38;;;4.57;;
69057;SDS011;56128;37.534;-122.308;2023-06-22T11:04:58;12.73;;;4.65;;
69057;SDS011;56128;37.534;-122.308;2023-06-22T11:07:25;12.77;;;4.57;;
69057;SDS011;56128;37.534;-122.308;2023-06-22T11:09:55;15.68;;;5.18;;
69057;SDS011;56128;37.534;-122.308;2023-06-22T11:12:21;16.70;;;5.47;;
69057;SDS011;56128;37.534;-122.308;2023-06-22T11:14:47;13.52;;;4.53;;
69057;SDS011;56128;37.534;-122.308;2023-06-22T11:17:17;11.35;;;4.53;;
69057;SDS011;56128;37.534;-122.308;2023-06-22T11:19:44;13.85;;;4.32;;
69057;SDS011;56128;37.534;-122.308;2023-06-22T11:22:10;13.10;;;4.20;;
69057;SDS011;56128;37.534;-122.308;2023-06-22T11:24:36;14.20;;;4.28;;
69057;SDS011;56128;37.534;-122.308;2023-06-22T11:27:02;12.07;;;4.70;;
69057;SDS011;56128;37.534;-122.308;2023-06-22T11:29:29;12.50;;;4.10;;
69057;SDS011;56128;37.534;-122.308;2023-06-22T11:31:56;11.73;;;4.30;;
69057;SDS011;56128;37.534;-122.308;2023-06-22T11:34:22;16.35;;;4.88;;
69057;SDS011;56128;37.534;-122.308;2023-06-22T11:36:48;12.43;;;4.78;;
69057;SDS011;56128;37.534;-122.308;2023-06-22T11:39:14;12.20;;;4.40;;
69057;SDS011;56128;37.534;-122.308;2023-06-22T11:41:41;15.23;;;4.38;;
69057;SDS011;56128;37.534;-122.308;2023-06-22T11:44:08;12.50;;;4.70;;
69057;SDS011;56128;37.534;-122.308;2023-06-22T11:46:34;11.45;;;4.60;;
69057;SDS011;56128;37.534;-122.308;2023-06-22T11:49:00;13.20;;;4.63;;
69057;SDS011;56128;37.534;-122.308;2023-06-22T11:51:27;9.43;;;4.28;;
69057;SDS011;56128;37.534;-122.308;2023-06-22T11:53:56;12.52;;;4.13;;
69057;SDS011;56128;37.534;-122.308;2023-06-22T11:56:24;11.65;;;4.60;;
69057;SDS011;56128;37.534;-122.308;2023-06-22T11:58:50;10.15;;;4.20;;
69057;SDS011;56128;37.534;-122.308;2023-06-22T12:01:16;8.75;;;4.05;;
69057;SDS011;56128;37.534;-122.308;2023-06-22T12:03:42;12.10;;;4.45;;
69057;SDS011;56128;37.534;-122.308;2023-06-22T12:06:09;16.98;;;5.15;;
69057;SDS011;56128;37.534;-122.308;2023-06-22T12:08:35;14.98;;;4.80;;
69057;SDS011;56128;37.534;-122.308;2023-06-22T12:11:01;13.48;;;4.45;;
69057;SDS011;56128;37.534;-122.308;2023-06-22T12:13:27;15.15;;;4.88;;
69057;SDS011;56128;37.534;-122.308;2023-06-22T12:15:54;10.95;;;4.30;;
69057;SDS011;56128;37.534;-122.308;2023-06-22T12:18:20;10.10;;;3.80;;
69057;SDS011;56128;37.534;-122.308;2023-06-22T12:20:46;14.57;;;4.32;;
69057;SDS011;56128;37.534;-122.308;2023-06-22T12:23:13;11.60;;;3.50;;
69057;SDS011;56128;37.534;-122.308;2023-06-22T12:25:40;8.27;;;3.65;;
69057;SDS011;56128;37.534;-122.308;2023-06-22T12:28:06;11.35;;;4.22;;
69057;SDS011;56128;37.534;-122.308;2023-06-22T12:30:33;14.35;;;4.15;;
69057;SDS011;56128;37.534;-122.308;2023-06-22T12:32:59;11.63;;;3.65;;
69057;SDS011;56128;37.534;-122.308;2023-06-22T12:35:25;10.82;;;3.85;;
69057;SDS011;56128;37.534;-122.308;2023-06-22T12:37:51;11.35;;;4.00;;
69057;SDS011;56128;37.534;-122.308;2023-06-22T12:40:18;16.40;;;5.13;;
69057;SDS011;56128;37.534;-122.308;2023-06-22T12:42:44;13.05;;;3.60;;
69057;SDS011;56128;37.534;-122.308;2023-06-22T12:45:11;12.07;;;4.20;;
69057;SDS011;56128;37.534;-122.308;2023-06-22T12:47:37;9.77;;;3.45;;
69057;SDS011;56128;37.534;-122.308;2023-06-22T12:50:04;8.63;;;3.55;;
69057;SDS011;56128;37.534;-122.308;2023-06-22T12:52:30;10.43;;;4.25;;
69057;SDS011;56128;37.534;-122.308;2023-06-22T12:54:57;10.45;;;3.72;;
69057;SDS011;56128;37.534;-122.308;2023-06-22T12:57:23;9.65;;;3.55;;
69057;SDS011;56128;37.534;-122.308;2023-06-22T12:59:50;12.05;;;4.03;;
69057;SDS011;56128;37.534;-122.308;2023-06-22T13:02:16;12.57;;;3.70;;
69057;SDS011;56128;37.534;-122.308;2023-06-22T13:04:43;14.60;;;4.43;;
69057;SDS011;56128;37.534;-122.308;2023-06-22T13:07:09;17.55;;;4.15;;
69057;SDS011;56128;37.534;-122.308;2023-06-22T13:09:36;12.75;;;3.63;;
69057;SDS011;56128;37.534;-122.308;2023-06-22T13:12:02;8.60;;;3.70;;
69057;SDS011;56128;37.534;-122.308;2023-06-22T13:14:29;11.18;;;3.78;;
69057;SDS011;56128;37.534;-122.308;2023-06-22T13:16:55;9.93;;;3.63;;
69057;SDS011;56128;37.534;-122.308;2023-06-22T13:19:21;14.32;;;4.15;;
69057;SDS011;56128;37.534;-122.308;2023-06-22T13:21:47;7.95;;;3.70;;
69057;SDS011;56128;37.534;-122.308;2023-06-22T13:24:13;10.43;;;3.47;;
69057;SDS011;56128;37.534;-122.308;2023-06-22T13:26:40;9.48;;;3.20;;
69057;SDS011;56128;37.534;-122.308;2023-06-22T13:29:06;12.60;;;4.00;;
69057;SDS011;56128;37.534;-122.308;2023-06-22T13:31:32;15.02;;;3.38;;
69057;SDS011;56128;37.534;-122.308;2023-06-22T13:33:58;12.90;;;3.60;;
69057;SDS011;56128;37.534;-122.308;2023-06-22T13:36:24;14.10;;;3.60;;
69057;SDS011;56128;37.534;-122.308;2023-06-22T13:38:51;11.25;;;3.83;;
69057;SDS011;56128;37.534;-122.308;2023-06-22T13:41:17;11.35;;;3.72;;
69057;SDS011;56128;37.534;-122.308;2023-06-22T13:43:43;14.68;;;3.78;;
69057;SDS011;56128;37.534;-122.308;2023-06-22T13:46:09;9.30;;;3.45;;
69057;SDS011;56128;37.534;-122.308;2023-06-22T13:48:35;12.85;;;3.78;;
69057;SDS011;56128;37.534;-122.308;2023-06-22T13:51:02;13.68;;;3.40;;
69057;SDS011;56128;37.534;-122.308;2023-06-22T13:53:28;12.85;;;3.85;;
69057;SDS011;56128;37.534;-122.308;2023-06-22T13:55:54;15.55;;;3.95;;
69057;SDS011;56128;37.534;-122.308;2023-06-22T13:58:21;9.63;;;3.10;;
69057;SDS011;56128;37.534;-122.308;2023-06-22T14:00:47;12.95;;;3.80;;
69057;SDS011;56128;37.534;-122.308;2023-06-22T14:03:14;10.10;;;3.63;;
69057;SDS011;56128;37.534;-122.308;2023-06-22T14:05:43;9.43;;;3.78;;
69057;SDS011;56128;37.534;-122.308;2023-06-22T14:08:09;11.20;;;4.03;;
69057;SDS011;56128;37.534;-122.308;2023-06-22T14:10:35;9.68;;;3.40;;